sensor_id;sensor_type;location;lat;lon;timestamp;P1;durP1;ratioP1;P2;durP2;ratioP2
77581;SDS011;66726;52.388;9.986;2023-03-17T00:00:43;4.37;;;2.63;;
77581;SDS011;66726;52.388;9.986;2023-03-17T00:03:18;4.13;;;2.77;;
77581;SDS011;66726;52.388;9.986;2023-03-17T00:05:57;3.40;;;2.67;;
77581;SDS011;66726;52.388;9.986;2023-03-17T00:08:30;4.00;;;2.90;;
77581;SDS011;66726;52.388;9.986;2023-03-17T00:11:05;3.03;;;2.60;;
77581;SDS011;66726;52.388;9.986;2023-03-17T00:13:40;4.07;;;2.80;;
77581;SDS011;66726;52.388;9.986;2023-03-17T00:16:15;2.50;;;2.30;;
77581;SDS011;66726;52.388;9.986;2023-03-17T00:18:50;3.33;;;2.60;;
77581;SDS011;66726;52.388;9.986;2023-03-17T00:21:26;3.80;;;2.60;;
77581;SDS011;66726;52.388;9.986;2023-03-17T00:24:01;3.17;;;2.80;;
77581;SDS011;66726;52.388;9.986;2023-03-17T00:26:39;3.00;;;2.70;;
77581;SDS011;66726;52.388;9.986;2023-03-17T00:29:11;4.20;;;3.20;;
77581;SDS011;66726;52.388;9.986;2023-03-17T00:31:43;4.33;;;3.30;;
77581;SDS011;66726;52.388;9.986;2023-03-17T00:34:16;4.40;;;2.93;;
77581;SDS011;66726;52.388;9.986;2023-03-17T00:36:50;5.03;;;3.30;;
77581;SDS011;66726;52.388;9.986;2023-03-17T00:39:22;3.57;;;3.00;;
77581;SDS011;66726;52.388;9.986;2023-03-17T00:41:53;3.73;;;3.20;;
77581;SDS011;66726;52.388;9.986;2023-03-17T00:44:25;4.10;;;2.70;;
77581;SDS011;66726;52.388;9.986;2023-03-17T00:46:58;3.73;;;3.03;;
77581;SDS011;66726;52.388;9.986;2023-03-17T00:49:30;3.50;;;3.20;;
77581;SDS011;66726;52.388;9.986;2023-03-17T00:52:03;4.07;;;3.23;;
77581;SDS011;66726;52.388;9.986;2023-03-17T00:54:37;5.37;;;3.27;;
77581;SDS011;66726;52.388;9.986;2023-03-17T00:57:09;3.83;;;3.00;;
77581;SDS011;66726;52.388;9.986;2023-03-17T00:59:41;4.67;;;3.30;;
77581;SDS011;66726;52.388;9.986;2023-03-17T01:02:14;5.67;;;3.50;;
77581;SDS011;66726;52.388;9.986;2023-03-17T01:04:45;4.77;;;3.37;;
77581;SDS011;66726;52.388;9.986;2023-03-17T01:07:32;3.83;;;3.43;;
77581;SDS011;66726;52.388;9.986;2023-03-17T01:10:08;5.40;;;3.70;;
77581;SDS011;66726;52.388;9.986;2023-03-17T01:12:44;4.53;;;3.30;;
77581;SDS011;66726;52.388;9.986;2023-03-17T01:15:16;3.90;;;3.40;;
77581;SDS011;66726;52.388;9.986;2023-03-17T01:17:51;4.17;;;3.70;;
77581;SDS011;66726;52.388;9.986;2023-03-17T01:20:24;4.97;;;3.90;;
77581;SDS011;66726;52.388;9.986;2023-03-17T01:23:00;4.80;;;3.70;;
77581;SDS011;66726;52.388;9.986;2023-03-17T01:25:32;4.63;;;3.87;;
77581;SDS011;66726;52.388;9.986;2023-03-17T01:28:05;5.27;;;3.60;;
77581;SDS011;66726;52.388;9.986;2023-03-17T01:30:39;4.40;;;3.70;;
77581;SDS011;66726;52.388;9.986;2023-03-17T01:33:12;4.37;;;3.97;;
77581;SDS011;66726;52.388;9.986;2023-03-17T01:35:44;5.27;;;3.80;;
77581;SDS011;66726;52.388;9.986;2023-03-17T01:38:18;5.37;;;3.60;;
77581;SDS011;66726;52.388;9.986;2023-03-17T01:40:50;4.23;;;3.83;;
77581;SDS011;66726;52.388;9.986;2023-03-17T01:43:23;5.43;;;3.77;;
77581;SDS011;66726;52.388;9.986;2023-03-17T01:48:58;5.40;;;4.00;;
77581;SDS011;66726;52.388;9.986;2023-03-17T01:51:37;4.90;;;4.30;;
77581;SDS011;66726;52.388;9.986;2023-03-17T01:54:16;5.33;;;3.83;;
77581;SDS011;66726;52.388;9.986;2023-03-17T01:56:53;5.37;;;4.30;;
77581;SDS011;66726;52.388;9.986;2023-03-17T01:59:32;5.53;;;4.40;;
77581;SDS011;66726;52.388;9.986;2023-03-17T02:02:11;5.40;;;3.83;;
77581;SDS011;66726;52.388;9.986;2023-03-17T02:04:50;5.00;;;3.57;;
77581;SDS011;66726;52.388;9.986;2023-03-17T02:07:22;4.70;;;4.20;;
77581;SDS011;66726;52.388;9.986;2023-03-17T02:09:56;5.33;;;4.10;;
77581;SDS011;66726;52.388;9.986;2023-03-17T02:12:29;5.57;;;4.57;;
77581;SDS011;66726;52.388;9.986;2023-03-17T02:15:02;5.97;;;4.33;;
77581;SDS011;66726;52.388;9.986;2023-03-17T02:17:36;4.13;;;3.73;;
77581;SDS011;66726;52.388;9.986;2023-03-17T02:20:12;5.33;;;4.13;;
77581;SDS011;66726;52.388;9.986;2023-03-17T02:23:30;4.43;;;3.63;;
77581;SDS011;66726;52.388;9.986;2023-03-17T02:26:03;5.50;;;4.30;;
77581;SDS011;66726;52.388;9.986;2023-03-17T02:28:35;5.67;;;3.87;;
77581;SDS011;66726;52.388;9.986;2023-03-17T02:31:11;4.40;;;3.80;;
77581;SDS011;66726;52.388;9.986;2023-03-17T02:33:43;4.80;;;4.07;;
77581;SDS011;66726;52.388;9.986;2023-03-17T02:36:14;4.23;;;3.70;;
77581;SDS011;66726;52.388;9.986;2023-03-17T02:38:48;7.37;;;4.20;;
77581;SDS011;66726;52.388;9.986;2023-03-17T02:41:20;5.50;;;4.40;;
77581;SDS011;66726;52.388;9.986;2023-03-17T02:43:52;4.70;;;3.77;;
77581;SDS011;66726;52.388;9.986;2023-03-17T02:46:24;4.47;;;4.03;;
77581;SDS011;66726;52.388;9.986;2023-03-17T02:48:56;4.47;;;4.03;;
77581;SDS011;66726;52.388;9.986;2023-03-17T02:51:29;6.20;;;4.03;;
77581;SDS011;66726;52.388;9.986;2023-03-17T02:54:03;4.20;;;3.80;;
77581;SDS011;66726;52.388;9.986;2023-03-17T02:56:35;5.33;;;4.40;;
77581;SDS011;66726;52.388;9.986;2023-03-17T02:59:07;4.40;;;4.00;;
77581;SDS011;66726;52.388;9.986;2023-03-17T03:01:39;5.90;;;3.93;;
77581;SDS011;66726;52.388;9.986;2023-03-17T03:04:13;4.70;;;4.10;;
77581;SDS011;66726;52.388;9.986;2023-03-17T03:06:46;4.40;;;4.00;;
77581;SDS011;66726;52.388;9.986;2023-03-17T03:09:20;5.27;;;4.03;;
77581;SDS011;66726;52.388;9.986;2023-03-17T03:11:52;4.93;;;4.20;;
77581;SDS011;66726;52.388;9.986;2023-03-17T03:14:24;4.97;;;4.20;;
77581;SDS011;66726;52.388;9.986;2023-03-17T03:16:57;4.50;;;4.10;;
77581;SDS011;66726;52.388;9.986;2023-03-17T03:19:29;5.70;;;4.23;;
77581;SDS011;66726;52.388;9.986;2023-03-17T03:22:01;5.33;;;4.30;;
77581;SDS011;66726;52.388;9.986;2023-03-17T03:24:34;5.47;;;4.10;;
77581;SDS011;66726;52.388;9.986;2023-03-17T03:27:06;4.73;;;4.17;;
77581;SDS011;66726;52.388;9.986;2023-03-17T03:29:38;6.23;;;4.47;;
77581;SDS011;66726;52.388;9.986;2023-03-17T03:32:10;4.87;;;4.33;;
77581;SDS011;66726;52.388;9.986;2023-03-17T03:34:42;5.70;;;4.50;;
77581;SDS011;66726;52.388;9.986;2023-03-17T03:37:14;5.90;;;4.20;;
77581;SDS011;66726;52.388;9.986;2023-03-17T03:39:47;4.37;;;3.73;;
77581;SDS011;66726;52.388;9.986;2023-03-17T03:42:19;6.10;;;4.73;;
77581;SDS011;66726;52.388;9.986;2023-03-17T03:44:51;5.23;;;3.87;;
77581;SDS011;66726;52.388;9.986;2023-03-17T03:47:23;5.90;;;4.40;;
77581;SDS011;66726;52.388;9.986;2023-03-17T03:49:54;4.30;;;3.90;;
77581;SDS011;66726;52.388;9.986;2023-03-17T03:52:26;6.00;;;4.13;;
77581;SDS011;66726;52.388;9.986;2023-03-17T03:55:00;5.50;;;4.43;;
77581;SDS011;66726;52.388;9.986;2023-03-17T03:57:33;4.60;;;4.10;;
77581;SDS011;66726;52.388;9.986;2023-03-17T04:00:05;4.10;;;3.70;;
77581;SDS011;66726;52.388;9.986;2023-03-17T04:02:39;5.73;;;4.30;;
77581;SDS011;66726;52.388;9.986;2023-03-17T04:05:12;6.77;;;4.90;;
77581;SDS011;66726;52.388;9.986;2023-03-17T04:07:45;6.47;;;4.50;;
77581;SDS011;66726;52.388;9.986;2023-03-17T04:10:18;8.93;;;5.23;;
77581;SDS011;66726;52.388;9.986;2023-03-17T04:12:50;6.43;;;5.13;;
77581;SDS011;66726;52.388;9.986;2023-03-17T04:15:22;5.03;;;4.53;;
77581;SDS011;66726;52.388;9.986;2023-03-17T04:17:54;5.87;;;4.60;;
77581;SDS011;66726;52.388;9.986;2023-03-17T04:20:26;5.00;;;4.33;;
77581;SDS011;66726;52.388;9.986;2023-03-17T04:22:58;6.13;;;4.37;;
77581;SDS011;66726;52.388;9.986;2023-03-17T04:25:31;6.20;;;4.17;;
77581;SDS011;66726;52.388;9.986;2023-03-17T04:28:04;4.90;;;4.37;;
77581;SDS011;66726;52.388;9.986;2023-03-17T04:30:36;5.97;;;4.43;;
77581;SDS011;66726;52.388;9.986;2023-03-17T04:33:08;6.07;;;4.90;;
77581;SDS011;66726;52.388;9.986;2023-03-17T04:35:40;5.00;;;4.07;;
77581;SDS011;66726;52.388;9.986;2023-03-17T04:38:12;6.60;;;4.47;;
77581;SDS011;66726;52.388;9.986;2023-03-17T04:40:45;5.67;;;4.17;;
77581;SDS011;66726;52.388;9.986;2023-03-17T04:43:17;5.40;;;3.73;;
77581;SDS011;66726;52.388;9.986;2023-03-17T04:45:49;5.37;;;4.30;;
77581;SDS011;66726;52.388;9.986;2023-03-17T04:48:22;6.87;;;4.80;;
77581;SDS011;66726;52.388;9.986;2023-03-17T04:50:54;5.33;;;4.60;;
77581;SDS011;66726;52.388;9.986;2023-03-17T04:53:25;6.37;;;4.80;;
77581;SDS011;66726;52.388;9.986;2023-03-17T04:55:59;4.90;;;4.40;;
77581;SDS011;66726;52.388;9.986;2023-03-17T04:58:31;5.27;;;4.53;;
77581;SDS011;66726;52.388;9.986;2023-03-17T05:01:03;4.77;;;4.23;;
77581;SDS011;66726;52.388;9.986;2023-03-17T05:03:35;7.37;;;5.17;;
77581;SDS011;66726;52.388;9.986;2023-03-17T05:06:07;5.30;;;4.13;;
77581;SDS011;66726;52.388;9.986;2023-03-17T05:08:38;6.87;;;4.73;;
77581;SDS011;66726;52.388;9.986;2023-03-17T05:11:12;5.67;;;4.37;;
77581;SDS011;66726;52.388;9.986;2023-03-17T05:13:46;7.37;;;4.57;;
77581;SDS011;66726;52.388;9.986;2023-03-17T05:16:18;5.67;;;4.70;;
77581;SDS011;66726;52.388;9.986;2023-03-17T05:18:51;5.87;;;4.23;;
77581;SDS011;66726;52.388;9.986;2023-03-17T05:21:22;5.13;;;3.90;;
77581;SDS011;66726;52.388;9.986;2023-03-17T05:23:54;5.70;;;4.23;;
77581;SDS011;66726;52.388;9.986;2023-03-17T05:26:27;7.43;;;4.40;;
77581;SDS011;66726;52.388;9.986;2023-03-17T05:28:59;7.20;;;4.67;;
77581;SDS011;66726;52.388;9.986;2023-03-17T05:31:31;6.43;;;4.37;;
77581;SDS011;66726;52.388;9.986;2023-03-17T05:34:03;12.77;;;4.50;;
77581;SDS011;66726;52.388;9.986;2023-03-17T05:36:35;5.70;;;4.60;;
77581;SDS011;66726;52.388;9.986;2023-03-17T05:39:07;6.13;;;4.77;;
77581;SDS011;66726;52.388;9.986;2023-03-17T05:41:41;7.70;;;4.63;;
77581;SDS011;66726;52.388;9.986;2023-03-17T05:44:13;7.57;;;4.73;;
77581;SDS011;66726;52.388;9.986;2023-03-17T05:46:45;5.93;;;4.73;;
77581;SDS011;66726;52.388;9.986;2023-03-17T05:49:17;6.50;;;4.60;;
77581;SDS011;66726;52.388;9.986;2023-03-17T05:51:49;7.13;;;4.23;;
77581;SDS011;66726;52.388;9.986;2023-03-17T05:54:21;5.40;;;4.67;;
77581;SDS011;66726;52.388;9.986;2023-03-17T05:56:54;7.57;;;4.83;;
77581;SDS011;66726;52.388;9.986;2023-03-17T05:59:26;7.67;;;4.47;;
77581;SDS011;66726;52.388;9.986;2023-03-17T06:01:58;7.07;;;4.90;;
77581;SDS011;66726;52.388;9.986;2023-03-17T06:04:30;5.77;;;4.53;;
77581;SDS011;66726;52.388;9.986;2023-03-17T06:07:02;6.23;;;4.53;;
77581;SDS011;66726;52.388;9.986;2023-03-17T06:09:34;6.40;;;4.43;;
77581;SDS011;66726;52.388;9.986;2023-03-17T06:12:08;4.73;;;4.03;;
77581;SDS011;66726;52.388;9.986;2023-03-17T06:14:42;6.33;;;4.77;;
77581;SDS011;66726;52.388;9.986;2023-03-17T06:17:14;6.43;;;4.40;;
77581;SDS011;66726;52.388;9.986;2023-03-17T06:19:46;6.53;;;4.30;;
77581;SDS011;66726;52.388;9.986;2023-03-17T06:22:18;6.50;;;4.23;;
77581;SDS011;66726;52.388;9.986;2023-03-17T06:24:49;6.60;;;4.13;;
77581;SDS011;66726;52.388;9.986;2023-03-17T06:27:23;7.83;;;5.03;;
77581;SDS011;66726;52.388;9.986;2023-03-17T06:29:55;7.07;;;4.70;;
77581;SDS011;66726;52.388;9.986;2023-03-17T06:32:27;5.70;;;4.13;;
77581;SDS011;66726;52.388;9.986;2023-03-17T06:34:59;4.33;;;3.90;;
77581;SDS011;66726;52.388;9.986;2023-03-17T06:37:32;5.17;;;3.83;;
77581;SDS011;66726;52.388;9.986;2023-03-17T06:40:04;5.47;;;4.43;;
77581;SDS011;66726;52.388;9.986;2023-03-17T06:42:41;5.30;;;4.40;;
77581;SDS011;66726;52.388;9.986;2023-03-17T06:45:13;4.80;;;4.30;;
77581;SDS011;66726;52.388;9.986;2023-03-17T06:47:46;6.53;;;4.77;;
77581;SDS011;66726;52.388;9.986;2023-03-17T06:50:17;6.00;;;4.40;;
77581;SDS011;66726;52.388;9.986;2023-03-17T06:52:49;6.73;;;4.47;;
77581;SDS011;66726;52.388;9.986;2023-03-17T06:55:21;6.53;;;4.70;;
77581;SDS011;66726;52.388;9.986;2023-03-17T06:57:55;5.13;;;4.40;;
77581;SDS011;66726;52.388;9.986;2023-03-17T07:00:28;5.57;;;4.50;;
77581;SDS011;66726;52.388;9.986;2023-03-17T07:03:00;8.30;;;4.57;;
77581;SDS011;66726;52.388;9.986;2023-03-17T07:05:32;5.20;;;4.53;;
77581;SDS011;66726;52.388;9.986;2023-03-17T07:08:04;7.17;;;4.43;;
77581;SDS011;66726;52.388;9.986;2023-03-17T07:10:37;5.10;;;4.03;;
77581;SDS011;66726;52.388;9.986;2023-03-17T07:13:12;4.80;;;4.30;;
77581;SDS011;66726;52.388;9.986;2023-03-17T07:15:44;5.23;;;4.07;;
77581;SDS011;66726;52.388;9.986;2023-03-17T07:18:18;7.10;;;3.93;;
77581;SDS011;66726;52.388;9.986;2023-03-17T07:20:52;5.53;;;4.10;;
77581;SDS011;66726;52.388;9.986;2023-03-17T07:23:24;5.80;;;3.90;;
77581;SDS011;66726;52.388;9.986;2023-03-17T07:25:56;5.53;;;4.10;;
77581;SDS011;66726;52.388;9.986;2023-03-17T07:28:30;4.30;;;3.63;;
77581;SDS011;66726;52.388;9.986;2023-03-17T07:31:02;4.50;;;3.87;;
77581;SDS011;66726;52.388;9.986;2023-03-17T07:33:34;7.20;;;4.10;;
77581;SDS011;66726;52.388;9.986;2023-03-17T07:36:06;5.50;;;4.03;;
77581;SDS011;66726;52.388;9.986;2023-03-17T07:38:38;5.50;;;3.87;;
77581;SDS011;66726;52.388;9.986;2023-03-17T07:41:10;5.83;;;4.10;;
77581;SDS011;66726;52.388;9.986;2023-03-17T07:43:43;5.87;;;3.93;;
77581;SDS011;66726;52.388;9.986;2023-03-17T07:46:15;6.87;;;3.70;;
77581;SDS011;66726;52.388;9.986;2023-03-17T07:48:48;6.40;;;3.73;;
77581;SDS011;66726;52.388;9.986;2023-03-17T07:51:20;13.97;;;4.50;;
77581;SDS011;66726;52.388;9.986;2023-03-17T07:53:53;5.67;;;3.73;;
77581;SDS011;66726;52.388;9.986;2023-03-17T07:56:29;5.47;;;4.00;;
77581;SDS011;66726;52.388;9.986;2023-03-17T07:59:02;6.00;;;4.00;;
77581;SDS011;66726;52.388;9.986;2023-03-17T08:01:36;4.67;;;3.53;;
77581;SDS011;66726;52.388;9.986;2023-03-17T08:04:08;5.17;;;4.00;;
77581;SDS011;66726;52.388;9.986;2023-03-17T08:06:40;6.23;;;3.87;;
77581;SDS011;66726;52.388;9.986;2023-03-17T08:09:12;5.10;;;3.70;;
77581;SDS011;66726;52.388;9.986;2023-03-17T08:11:44;6.00;;;4.10;;
77581;SDS011;66726;52.388;9.986;2023-03-17T08:14:17;5.63;;;3.87;;
77581;SDS011;66726;52.388;9.986;2023-03-17T08:16:49;4.73;;;3.80;;
77581;SDS011;66726;52.388;9.986;2023-03-17T08:19:21;3.93;;;3.30;;
77581;SDS011;66726;52.388;9.986;2023-03-17T08:21:53;5.90;;;3.47;;
77581;SDS011;66726;52.388;9.986;2023-03-17T08:24:26;5.27;;;3.20;;
77581;SDS011;66726;52.388;9.986;2023-03-17T08:26:58;5.83;;;3.67;;
77581;SDS011;66726;52.388;9.986;2023-03-17T08:29:32;4.97;;;3.30;;
77581;SDS011;66726;52.388;9.986;2023-03-17T08:32:05;4.23;;;3.37;;
77581;SDS011;66726;52.388;9.986;2023-03-17T08:34:38;3.47;;;3.00;;
77581;SDS011;66726;52.388;9.986;2023-03-17T08:37:11;3.97;;;2.90;;
77581;SDS011;66726;52.388;9.986;2023-03-17T08:39:43;5.10;;;3.40;;
77581;SDS011;66726;52.388;9.986;2023-03-17T08:42:15;3.77;;;2.77;;
77581;SDS011;66726;52.388;9.986;2023-03-17T08:44:48;3.93;;;2.77;;
77581;SDS011;66726;52.388;9.986;2023-03-17T08:47:21;6.07;;;2.97;;
77581;SDS011;66726;52.388;9.986;2023-03-17T08:49:53;4.10;;;2.77;;
77581;SDS011;66726;52.388;9.986;2023-03-17T08:52:25;4.33;;;2.90;;
77581;SDS011;66726;52.388;9.986;2023-03-17T08:54:57;6.10;;;3.10;;
77581;SDS011;66726;52.388;9.986;2023-03-17T08:57:29;3.80;;;2.80;;
77581;SDS011;66726;52.388;9.986;2023-03-17T09:00:03;3.67;;;3.10;;
77581;SDS011;66726;52.388;9.986;2023-03-17T09:02:37;5.20;;;2.90;;
77581;SDS011;66726;52.388;9.986;2023-03-17T09:05:11;4.10;;;2.77;;
77581;SDS011;66726;52.388;9.986;2023-03-17T09:07:44;4.53;;;2.67;;
77581;SDS011;66726;52.388;9.986;2023-03-17T09:10:17;7.50;;;2.73;;
77581;SDS011;66726;52.388;9.986;2023-03-17T09:12:52;5.67;;;2.80;;
77581;SDS011;66726;52.388;9.986;2023-03-17T09:15:29;4.30;;;2.90;;
77581;SDS011;66726;52.388;9.986;2023-03-17T09:18:03;3.43;;;2.90;;
77581;SDS011;66726;52.388;9.986;2023-03-17T09:20:36;3.60;;;2.90;;
77581;SDS011;66726;52.388;9.986;2023-03-17T09:23:09;3.63;;;2.47;;
77581;SDS011;66726;52.388;9.986;2023-03-17T09:25:42;6.57;;;4.40;;
77581;SDS011;66726;52.388;9.986;2023-03-17T09:28:17;5.50;;;2.73;;
77581;SDS011;66726;52.388;9.986;2023-03-17T09:30:50;3.37;;;3.07;;
77581;SDS011;66726;52.388;9.986;2023-03-17T09:33:26;3.13;;;2.47;;
77581;SDS011;66726;52.388;9.986;2023-03-17T09:35:58;4.70;;;4.10;;
77581;SDS011;66726;52.388;9.986;2023-03-17T09:38:30;6.07;;;3.43;;
77581;SDS011;66726;52.388;9.986;2023-03-17T09:41:05;5.33;;;3.67;;
77581;SDS011;66726;52.388;9.986;2023-03-17T09:43:59;7.00;;;4.40;;
77581;SDS011;66726;52.388;9.986;2023-03-17T09:46:47;4.30;;;2.60;;
77581;SDS011;66726;52.388;9.986;2023-03-17T09:49:33;4.83;;;2.87;;
77581;SDS011;66726;52.388;9.986;2023-03-17T09:52:13;4.37;;;2.87;;
77581;SDS011;66726;52.388;9.986;2023-03-17T09:54:53;2.80;;;2.10;;
77581;SDS011;66726;52.388;9.986;2023-03-17T09:57:31;3.70;;;2.50;;
77581;SDS011;66726;52.388;9.986;2023-03-17T10:00:12;2.93;;;2.40;;
77581;SDS011;66726;52.388;9.986;2023-03-17T10:02:53;4.33;;;2.67;;
77581;SDS011;66726;52.388;9.986;2023-03-17T10:05:27;4.40;;;2.50;;
77581;SDS011;66726;52.388;9.986;2023-03-17T10:08:03;6.00;;;2.50;;
77581;SDS011;66726;52.388;9.986;2023-03-17T10:10:56;2.70;;;2.50;;
77581;SDS011;66726;52.388;9.986;2023-03-17T10:13:38;4.00;;;2.70;;
77581;SDS011;66726;52.388;9.986;2023-03-17T10:16:22;5.03;;;2.80;;
77581;SDS011;66726;52.388;9.986;2023-03-17T10:19:09;12.73;;;7.57;;
77581;SDS011;66726;52.388;9.986;2023-03-17T10:21:56;9.70;;;5.70;;
77581;SDS011;66726;52.388;9.986;2023-03-17T10:24:31;9.43;;;6.77;;
77581;SDS011;66726;52.388;9.986;2023-03-17T10:27:12;5.30;;;3.43;;
77581;SDS011;66726;52.388;9.986;2023-03-17T10:29:46;5.20;;;3.50;;
77581;SDS011;66726;52.388;9.986;2023-03-17T10:32:20;3.93;;;3.20;;
77581;SDS011;66726;52.388;9.986;2023-03-17T10:34:54;4.23;;;3.27;;
77581;SDS011;66726;52.388;9.986;2023-03-17T10:37:27;3.97;;;2.87;;
77581;SDS011;66726;52.388;9.986;2023-03-17T10:40:04;3.77;;;2.90;;
77581;SDS011;66726;52.388;9.986;2023-03-17T10:42:47;3.00;;;2.50;;
77581;SDS011;66726;52.388;9.986;2023-03-17T10:45:23;3.83;;;2.40;;
77581;SDS011;66726;52.388;9.986;2023-03-17T10:47:59;7.13;;;5.00;;
77581;SDS011;66726;52.388;9.986;2023-03-17T10:50:36;4.23;;;2.63;;
77581;SDS011;66726;52.388;9.986;2023-03-17T10:53:08;5.70;;;3.83;;
77581;SDS011;66726;52.388;9.986;2023-03-17T10:55:55;4.13;;;2.77;;
77581;SDS011;66726;52.388;9.986;2023-03-17T10:58:35;3.30;;;2.43;;
77581;SDS011;66726;52.388;9.986;2023-03-17T11:01:15;3.87;;;2.70;;
77581;SDS011;66726;52.388;9.986;2023-03-17T11:03:54;3.90;;;2.40;;
77581;SDS011;66726;52.388;9.986;2023-03-17T11:06:32;3.33;;;2.53;;
77581;SDS011;66726;52.388;9.986;2023-03-17T11:09:09;5.23;;;2.43;;
77581;SDS011;66726;52.388;9.986;2023-03-17T11:11:48;3.97;;;2.70;;
77581;SDS011;66726;52.388;9.986;2023-03-17T11:14:29;3.47;;;2.10;;
77581;SDS011;66726;52.388;9.986;2023-03-17T11:17:03;3.37;;;2.60;;
77581;SDS011;66726;52.388;9.986;2023-03-17T11:19:52;4.13;;;2.63;;
77581;SDS011;66726;52.388;9.986;2023-03-17T11:22:36;2.63;;;2.20;;
77581;SDS011;66726;52.388;9.986;2023-03-17T11:25:19;6.50;;;2.77;;
77581;SDS011;66726;52.388;9.986;2023-03-17T11:27:53;4.17;;;2.40;;
77581;SDS011;66726;52.388;9.986;2023-03-17T11:30:42;2.73;;;2.13;;
77581;SDS011;66726;52.388;9.986;2023-03-17T11:33:31;4.70;;;2.50;;
77581;SDS011;66726;52.388;9.986;2023-03-17T11:36:12;2.80;;;2.37;;
77581;SDS011;66726;52.388;9.986;2023-03-17T11:39:04;4.63;;;2.57;;
77581;SDS011;66726;52.388;9.986;2023-03-17T11:41:50;3.00;;;2.27;;
77581;SDS011;66726;52.388;9.986;2023-03-17T11:44:39;4.30;;;2.43;;
77581;SDS011;66726;52.388;9.986;2023-03-17T11:47:48;4.77;;;2.73;;
77581;SDS011;66726;52.388;9.986;2023-03-17T11:50:39;4.37;;;2.50;;
77581;SDS011;66726;52.388;9.986;2023-03-17T11:53:26;4.03;;;2.43;;
77581;SDS011;66726;52.388;9.986;2023-03-17T11:56:11;4.27;;;2.40;;
77581;SDS011;66726;52.388;9.986;2023-03-17T11:58:48;4.67;;;2.90;;
77581;SDS011;66726;52.388;9.986;2023-03-17T12:01:28;3.00;;;2.50;;
77581;SDS011;66726;52.388;9.986;2023-03-17T12:04:15;2.97;;;2.43;;
77581;SDS011;66726;52.388;9.986;2023-03-17T12:07:00;3.17;;;2.77;;
77581;SDS011;66726;52.388;9.986;2023-03-17T12:09:39;5.83;;;2.60;;
77581;SDS011;66726;52.388;9.986;2023-03-17T12:12:23;3.53;;;2.20;;
77581;SDS011;66726;52.388;9.986;2023-03-17T12:15:01;4.83;;;2.70;;
77581;SDS011;66726;52.388;9.986;2023-03-17T12:17:42;2.57;;;2.37;;
77581;SDS011;66726;52.388;9.986;2023-03-17T12:20:23;3.23;;;2.40;;
77581;SDS011;66726;52.388;9.986;2023-03-17T12:23:05;2.70;;;2.50;;
77581;SDS011;66726;52.388;9.986;2023-03-17T12:25:56;3.83;;;2.43;;
77581;SDS011;66726;52.388;9.986;2023-03-17T12:28:40;3.83;;;2.40;;
77581;SDS011;66726;52.388;9.986;2023-03-17T12:31:24;5.10;;;2.70;;
77581;SDS011;66726;52.388;9.986;2023-03-17T12:34:03;3.07;;;2.50;;
77581;SDS011;66726;52.388;9.986;2023-03-17T12:36:41;5.17;;;3.00;;
77581;SDS011;66726;52.388;9.986;2023-03-17T12:39:15;4.03;;;2.77;;
77581;SDS011;66726;52.388;9.986;2023-03-17T12:41:56;4.87;;;2.70;;
77581;SDS011;66726;52.388;9.986;2023-03-17T12:44:44;3.47;;;2.33;;
77581;SDS011;66726;52.388;9.986;2023-03-17T12:47:54;3.57;;;2.50;;
77581;SDS011;66726;52.388;9.986;2023-03-17T12:54:17;3.57;;;2.57;;
77581;SDS011;66726;52.388;9.986;2023-03-17T12:56:59;3.30;;;2.40;;
77581;SDS011;66726;52.388;9.986;2023-03-17T12:59:40;4.07;;;2.30;;
77581;SDS011;66726;52.388;9.986;2023-03-17T13:02:16;5.23;;;2.47;;
77581;SDS011;66726;52.388;9.986;2023-03-17T13:04:59;5.73;;;2.60;;
77581;SDS011;66726;52.388;9.986;2023-03-17T13:07:40;3.27;;;2.13;;
77581;SDS011;66726;52.388;9.986;2023-03-17T13:10:35;5.60;;;2.63;;
77581;SDS011;66726;52.388;9.986;2023-03-17T13:13:11;3.77;;;2.30;;
77581;SDS011;66726;52.388;9.986;2023-03-17T13:16:04;3.50;;;2.40;;
77581;SDS011;66726;52.388;9.986;2023-03-17T13:19:05;7.93;;;2.50;;
77581;SDS011;66726;52.388;9.986;2023-03-17T13:21:44;5.50;;;2.57;;
77581;SDS011;66726;52.388;9.986;2023-03-17T13:24:39;7.10;;;3.07;;
77581;SDS011;66726;52.388;9.986;2023-03-17T13:27:14;5.27;;;2.70;;
77581;SDS011;66726;52.388;9.986;2023-03-17T13:33:34;4.97;;;2.40;;
77581;SDS011;66726;52.388;9.986;2023-03-17T13:36:15;4.00;;;2.40;;
77581;SDS011;66726;52.388;9.986;2023-03-17T13:39:12;4.03;;;2.60;;
77581;SDS011;66726;52.388;9.986;2023-03-17T13:42:30;3.00;;;2.27;;
77581;SDS011;66726;52.388;9.986;2023-03-17T13:45:22;2.80;;;2.47;;
77581;SDS011;66726;52.388;9.986;2023-03-17T13:48:20;4.80;;;2.37;;
77581;SDS011;66726;52.388;9.986;2023-03-17T13:50:58;5.27;;;2.63;;
77581;SDS011;66726;52.388;9.986;2023-03-17T13:53:44;3.17;;;2.03;;
77581;SDS011;66726;52.388;9.986;2023-03-17T13:56:21;4.20;;;2.20;;
77581;SDS011;66726;52.388;9.986;2023-03-17T13:59:13;4.93;;;2.40;;
77581;SDS011;66726;52.388;9.986;2023-03-17T14:01:49;2.77;;;1.90;;
77581;SDS011;66726;52.388;9.986;2023-03-17T14:04:28;4.37;;;2.00;;
77581;SDS011;66726;52.388;9.986;2023-03-17T14:07:12;3.33;;;1.93;;
77581;SDS011;66726;52.388;9.986;2023-03-17T14:09:49;6.47;;;2.10;;
77581;SDS011;66726;52.388;9.986;2023-03-17T14:12:27;2.83;;;1.80;;
77581;SDS011;66726;52.388;9.986;2023-03-17T14:15:13;3.87;;;2.10;;
77581;SDS011;66726;52.388;9.986;2023-03-17T14:17:54;2.23;;;1.70;;
77581;SDS011;66726;52.388;9.986;2023-03-17T14:20:29;4.97;;;2.03;;
77581;SDS011;66726;52.388;9.986;2023-03-17T14:23:02;2.53;;;1.83;;
77581;SDS011;66726;52.388;9.986;2023-03-17T14:25:35;4.13;;;1.80;;
77581;SDS011;66726;52.388;9.986;2023-03-17T14:28:10;4.00;;;2.00;;
77581;SDS011;66726;52.388;9.986;2023-03-17T14:30:51;5.10;;;1.97;;
77581;SDS011;66726;52.388;9.986;2023-03-17T14:33:29;8.40;;;2.00;;
77581;SDS011;66726;52.388;9.986;2023-03-17T14:36:05;3.23;;;1.70;;
77581;SDS011;66726;52.388;9.986;2023-03-17T14:38:45;4.90;;;1.90;;
77581;SDS011;66726;52.388;9.986;2023-03-17T14:41:20;5.07;;;1.90;;
77581;SDS011;66726;52.388;9.986;2023-03-17T14:43:55;3.00;;;1.70;;
77581;SDS011;66726;52.388;9.986;2023-03-17T14:46:31;2.53;;;1.67;;
77581;SDS011;66726;52.388;9.986;2023-03-17T14:49:12;3.73;;;1.60;;
77581;SDS011;66726;52.388;9.986;2023-03-17T14:51:47;4.73;;;1.97;;
77581;SDS011;66726;52.388;9.986;2023-03-17T14:54:22;3.30;;;1.70;;
77581;SDS011;66726;52.388;9.986;2023-03-17T14:56:58;3.30;;;1.90;;
77581;SDS011;66726;52.388;9.986;2023-03-17T14:59:35;4.37;;;1.77;;
77581;SDS011;66726;52.388;9.986;2023-03-17T15:02:16;4.27;;;1.90;;
77581;SDS011;66726;52.388;9.986;2023-03-17T15:04:55;7.00;;;2.10;;
77581;SDS011;66726;52.388;9.986;2023-03-17T15:07:31;3.90;;;1.90;;
77581;SDS011;66726;52.388;9.986;2023-03-17T15:10:12;3.10;;;1.80;;
77581;SDS011;66726;52.388;9.986;2023-03-17T15:12:45;3.17;;;1.80;;
77581;SDS011;66726;52.388;9.986;2023-03-17T15:15:28;3.60;;;1.73;;
77581;SDS011;66726;52.388;9.986;2023-03-17T15:18:08;2.10;;;1.70;;
77581;SDS011;66726;52.388;9.986;2023-03-17T15:20:45;3.67;;;1.83;;
77581;SDS011;66726;52.388;9.986;2023-03-17T15:23:19;3.43;;;2.03;;
77581;SDS011;66726;52.388;9.986;2023-03-17T15:25:55;3.57;;;2.37;;
77581;SDS011;66726;52.388;9.986;2023-03-17T15:28:35;3.00;;;2.00;;
77581;SDS011;66726;52.388;9.986;2023-03-17T15:31:09;5.13;;;1.73;;
77581;SDS011;66726;52.388;9.986;2023-03-17T15:33:44;2.33;;;1.50;;
77581;SDS011;66726;52.388;9.986;2023-03-17T15:36:16;2.10;;;1.90;;
77581;SDS011;66726;52.388;9.986;2023-03-17T15:38:58;5.53;;;2.00;;
77581;SDS011;66726;52.388;9.986;2023-03-17T15:41:31;3.73;;;2.00;;
77581;SDS011;66726;52.388;9.986;2023-03-17T15:44:03;3.63;;;2.10;;
77581;SDS011;66726;52.388;9.986;2023-03-17T15:46:35;3.40;;;2.20;;
77581;SDS011;66726;52.388;9.986;2023-03-17T15:49:09;3.00;;;2.13;;
77581;SDS011;66726;52.388;9.986;2023-03-17T15:51:41;4.20;;;2.07;;